createdAt,value
2022-12-08T00:02:44.129Z,9.93
2022-12-08T00:08:04.859Z,6.00
2022-12-08T00:13:06.301Z,4.47
2022-12-08T00:18:07.776Z,5.10
2022-12-08T00:23:09.187Z,5.17
2022-12-08T00:28:10.740Z,8.17
2022-12-08T00:33:12.381Z,4.40
2022-12-08T00:38:13.803Z,5.80
2022-12-08T00:43:15.283Z,8.30
2022-12-08T00:54:57.599Z,5.93
2022-12-08T00:59:59.019Z,6.70
2022-12-08T01:05:00.632Z,5.23
2022-12-08T01:10:02.426Z,7.30
2022-12-08T01:15:04.617Z,7.87
2022-12-08T01:20:07.080Z,7.33
2022-12-08T01:25:08.938Z,7.33
2022-12-08T01:30:13.248Z,6.73
2022-12-08T01:35:14.810Z,6.17
2022-12-08T01:40:16.534Z,7.13
2022-12-08T01:45:24.634Z,7.17
2022-12-08T01:50:28.507Z,8.13
2022-12-08T01:55:36.454Z,6.82
2022-12-08T02:00:37.876Z,7.90
2022-12-08T02:05:40.405Z,8.63
2022-12-08T02:10:43.334Z,8.30
2022-12-08T02:15:56.755Z,8.80
2022-12-08T02:21:12.435Z,10.17
2022-12-08T02:26:16.478Z,11.03
2022-12-08T02:31:51.784Z,10.85
2022-12-08T02:37:04.684Z,11.63
2022-12-08T02:42:20.867Z,12.27
2022-12-08T02:47:24.584Z,11.30
2022-12-08T02:52:25.980Z,9.07
2022-12-08T02:57:33.132Z,7.00
2022-12-08T03:03:05.355Z,6.03
2022-12-08T03:08:06.793Z,5.33
2022-12-08T03:13:18.169Z,5.93
2022-12-08T03:18:27.318Z,5.77
2022-12-08T03:23:30.417Z,7.23
2022-12-08T03:28:32.097Z,7.33
2022-12-08T03:33:37.528Z,7.07
2022-12-08T03:38:41.304Z,7.47
2022-12-08T03:43:42.831Z,8.80
2022-12-08T03:48:44.535Z,8.93
2022-12-08T03:53:46.352Z,10.30
2022-12-08T03:58:47.756Z,8.10
2022-12-08T04:03:49.575Z,7.63
2022-12-08T04:08:52.232Z,7.70
2022-12-08T04:13:53.703Z,10.47
2022-12-08T04:18:55.502Z,9.70
2022-12-08T04:24:01.112Z,12.73
2022-12-08T04:29:03.016Z,10.20
2022-12-08T04:34:04.410Z,11.97
2022-12-08T04:39:06.002Z,8.13
2022-12-08T04:44:07.403Z,9.40
2022-12-08T04:49:08.882Z,9.60
2022-12-08T04:54:10.350Z,9.70
2022-12-08T04:59:11.844Z,9.23
2022-12-08T05:04:13.335Z,9.67
2022-12-08T05:09:14.870Z,10.03
2022-12-08T05:14:18.179Z,10.17
2022-12-08T05:19:19.667Z,10.27
2022-12-08T05:24:21.098Z,10.27
2022-12-08T05:29:22.681Z,11.13
2022-12-08T05:34:24.201Z,10.37
2022-12-08T05:39:25.903Z,9.57
2022-12-08T05:44:27.360Z,10.87
2022-12-08T05:49:28.829Z,12.10
2022-12-08T05:54:30.407Z,10.33
2022-12-08T05:59:31.814Z,12.63
2022-12-08T06:04:33.270Z,9.90
2022-12-08T06:09:34.790Z,11.93
2022-12-08T06:14:36.240Z,13.20
2022-12-08T06:19:37.700Z,13.10
2022-12-08T06:24:39.243Z,10.77
2022-12-08T06:29:40.740Z,16.13
2022-12-08T06:34:42.188Z,14.63
2022-12-08T06:39:43.710Z,16.20
2022-12-08T06:44:45.313Z,17.03
2022-12-08T06:49:46.772Z,18.97
2022-12-08T06:54:48.182Z,17.83
2022-12-08T06:59:49.807Z,23.00
2022-12-08T07:04:51.478Z,21.67
2022-12-08T07:09:52.880Z,30.53
2022-12-08T07:14:54.691Z,23.27
2022-12-08T07:19:56.192Z,25.57
2022-12-08T07:24:57.638Z,22.47
2022-12-08T07:29:59.105Z,22.40
2022-12-08T07:35:00.755Z,18.70
2022-12-08T07:40:02.605Z,44.07
2022-12-08T07:45:04.799Z,36.00
2022-12-08T07:50:07.252Z,30.30
2022-12-08T07:55:09.328Z,26.73
2022-12-08T08:00:11.421Z,25.43
2022-12-08T08:05:13.272Z,26.33
2022-12-08T08:10:14.795Z,22.33
2022-12-08T08:15:17.432Z,23.40
2022-12-08T08:20:20.772Z,30.37
2022-12-08T08:25:22.730Z,24.93
2022-12-08T08:30:24.620Z,21.60
2022-12-08T08:35:26.079Z,29.33
2022-12-08T08:40:27.514Z,25.20
2022-12-08T08:45:28.988Z,25.97
2022-12-08T08:50:35.866Z,24.83
2022-12-08T08:55:39.599Z,24.03
2022-12-08T09:00:41.136Z,22.10
2022-12-08T09:05:42.684Z,22.13
2022-12-08T09:10:44.223Z,28.70
2022-12-08T09:15:45.751Z,31.77
2022-12-08T09:20:47.446Z,23.73
2022-12-08T09:25:48.859Z,22.37
2022-12-08T09:30:52.136Z,23.27
2022-12-08T09:35:54.794Z,24.75
2022-12-08T09:40:56.425Z,23.63
2022-12-08T09:45:58.656Z,21.00
2022-12-08T09:51:00.089Z,22.17
2022-12-08T09:56:04.075Z,21.53
2022-12-08T10:01:05.566Z,18.38
2022-12-08T10:06:30.629Z,21.90
2022-12-08T10:11:44.543Z,24.50
2022-12-08T10:16:49.812Z,20.10
2022-12-08T10:21:53.008Z,20.77
2022-12-08T10:26:55.797Z,43.93
2022-12-08T10:31:59.491Z,31.83
2022-12-08T10:37:09.679Z,17.03
2022-12-08T10:42:14.110Z,30.30
2022-12-08T10:47:15.668Z,18.25
2022-12-08T10:52:24.147Z,29.93
2022-12-08T10:57:25.741Z,24.37
2022-12-08T11:02:27.404Z,43.73
2022-12-08T11:07:29.374Z,44.07
2022-12-08T11:12:31.345Z,18.27
2022-12-08T11:17:41.276Z,22.47
2022-12-08T11:22:44.816Z,13.63
2022-12-08T11:27:48.872Z,30.00
2022-12-08T11:32:57.249Z,14.48
2022-12-08T11:38:20.514Z,25.20
2022-12-08T11:43:35.136Z,16.63
2022-12-08T11:48:39.334Z,15.67
2022-12-08T11:54:06.927Z,16.05
2022-12-08T11:59:26.274Z,18.57
2022-12-08T12:05:04.032Z,23.23
2022-12-08T12:10:36.482Z,20.30
2022-12-08T12:16:08.086Z,16.47
2022-12-08T12:21:22.751Z,17.43
2022-12-08T12:26:31.096Z,18.60
2022-12-08T12:31:37.094Z,16.27
2022-12-08T12:36:51.229Z,15.40
2022-12-08T12:41:58.795Z,16.25
2022-12-08T12:47:02.501Z,14.33
2022-12-08T12:52:18.675Z,16.43
2022-12-08T12:57:20.060Z,15.43
2022-12-08T13:02:36.669Z,13.47
2022-12-08T13:08:16.259Z,16.43
2022-12-08T13:13:18.898Z,14.73
2022-12-08T13:18:39.803Z,15.00
2022-12-08T13:24:17.676Z,16.47
2022-12-08T13:29:26.516Z,16.17
2022-12-08T13:34:46.258Z,16.23
2022-12-08T13:40:14.312Z,18.83
2022-12-08T13:45:48.713Z,17.57
2022-12-08T13:57:02.404Z,19.30
2022-12-08T14:02:02.148Z,18.30
2022-12-08T14:07:04.812Z,17.33
2022-12-08T14:12:20.852Z,16.77
2022-12-08T14:17:23.523Z,18.17
2022-12-08T14:22:31.977Z,22.60
2022-12-08T14:27:36.039Z,17.27
2022-12-08T14:32:51.356Z,17.40
2022-12-08T14:37:57.040Z,17.67
2022-12-08T14:43:07.798Z,23.77
2022-12-08T14:48:38.458Z,21.77
2022-12-08T14:53:47.399Z,20.73
2022-12-08T14:58:51.339Z,19.80
2022-12-08T15:03:54.643Z,20.83
2022-12-08T15:09:01.464Z,18.83
2022-12-08T15:14:03.151Z,21.37
2022-12-08T15:19:30.175Z,23.17
2022-12-08T15:24:35.539Z,25.47
2022-12-08T15:29:37.019Z,26.58
2022-12-08T15:34:38.490Z,30.07
2022-12-08T15:39:39.976Z,26.33
2022-12-08T15:44:41.709Z,23.33
2022-12-08T15:49:44.351Z,17.70
2022-12-08T15:54:46.077Z,22.30
2022-12-08T15:59:47.812Z,24.77
2022-12-08T16:10:19.476Z,26.63
2022-12-08T16:15:49.976Z,35.97
2022-12-08T16:21:09.282Z,27.00
2022-12-08T16:26:49.091Z,25.47
2022-12-08T16:31:27.031Z,19.17
2022-12-08T16:36:28.506Z,16.30
2022-12-08T16:41:48.536Z,18.93
2022-12-08T16:46:50.056Z,24.97
2022-12-08T16:51:51.555Z,23.13
2022-12-08T16:56:53.020Z,32.17
2022-12-08T17:01:54.631Z,23.13
2022-12-08T17:06:56.307Z,22.77
2022-12-08T17:12:03.458Z,29.40
2022-12-08T17:17:06.209Z,27.07
2022-12-08T17:22:07.750Z,27.80
2022-12-08T17:27:09.209Z,26.67
2022-12-08T17:32:10.698Z,29.97
2022-12-08T17:37:12.370Z,26.93
2022-12-08T17:42:13.823Z,29.47
2022-12-08T17:47:15.359Z,21.33
2022-12-08T17:52:16.812Z,29.70
2022-12-08T17:57:18.396Z,21.00
2022-12-08T18:02:20.639Z,28.27
2022-12-08T18:07:22.197Z,28.07
2022-12-08T18:12:24.131Z,23.40
2022-12-08T18:17:25.703Z,29.90
2022-12-08T18:22:27.303Z,64.17
2022-12-08T18:27:28.767Z,93.30
2022-12-08T18:32:30.218Z,76.47
2022-12-08T18:37:31.675Z,30.90
2022-12-08T18:42:33.237Z,23.60
2022-12-08T18:47:37.055Z,30.67
2022-12-08T18:52:38.612Z,25.83
2022-12-08T18:57:43.093Z,29.70
2022-12-08T19:02:44.811Z,23.90
2022-12-08T19:07:46.531Z,22.67
2022-12-08T19:12:52.544Z,22.20
2022-12-08T19:17:54.036Z,23.80
2022-12-08T19:22:55.518Z,23.77
2022-12-08T19:27:56.969Z,22.73
2022-12-08T19:32:58.623Z,24.07
2022-12-08T19:38:00.143Z,22.70
2022-12-08T19:43:20.107Z,20.00
2022-12-08T19:48:21.593Z,17.67
2022-12-08T19:53:24.493Z,17.97
2022-12-08T19:58:26.059Z,14.03
2022-12-08T20:03:27.518Z,15.97
2022-12-08T20:08:29.066Z,15.63
2022-12-08T20:13:45.148Z,16.13
2022-12-08T20:18:48.502Z,16.90
2022-12-08T20:23:50.095Z,17.00
2022-12-08T20:28:51.806Z,20.37
2022-12-08T20:33:54.317Z,18.97
2022-12-08T20:38:56.143Z,16.70
2022-12-08T20:43:57.696Z,18.20
2022-12-08T20:49:01.237Z,20.97
2022-12-08T20:54:04.518Z,19.00
2022-12-08T20:59:06.135Z,16.33
2022-12-08T21:04:12.188Z,20.83
2022-12-08T21:09:13.962Z,16.87
2022-12-08T21:14:15.666Z,18.37
2022-12-08T21:19:19.179Z,17.63
2022-12-08T21:24:20.741Z,20.37
2022-12-08T21:29:22.851Z,17.83
2022-12-08T21:34:25.791Z,19.90
2022-12-08T21:39:27.616Z,20.43
2022-12-08T21:44:29.047Z,21.50
2022-12-08T21:49:30.580Z,25.70
2022-12-08T21:54:32.250Z,22.83
2022-12-08T21:59:33.766Z,22.30
2022-12-08T22:04:35.346Z,24.73
2022-12-08T22:09:37.243Z,23.77
2022-12-08T22:14:40.403Z,24.57
2022-12-08T22:19:41.998Z,25.33
2022-12-08T22:24:43.406Z,26.30
2022-12-08T22:29:45.241Z,22.90
2022-12-08T22:34:47.052Z,22.73
2022-12-08T22:39:48.463Z,25.87
2022-12-08T22:44:50.058Z,25.80
2022-12-08T22:49:51.462Z,26.30
2022-12-08T22:54:53.056Z,24.63
2022-12-08T22:59:54.532Z,24.90
2022-12-08T23:04:56.920Z,24.60
2022-12-08T23:09:58.534Z,25.80
2022-12-08T23:14:59.962Z,26.37
2022-12-08T23:20:01.801Z,25.67
2022-12-08T23:25:04.626Z,27.13
2022-12-08T23:30:07.478Z,28.20
2022-12-08T23:35:10.012Z,26.53
2022-12-08T23:40:12.200Z,29.57
2022-12-08T23:45:13.868Z,28.97
2022-12-08T23:50:15.812Z,27.10
2022-12-08T23:55:17.491Z,28.70
